< < Back
Terminal Aerodrome Forecast


Current Version              Previous Versions:   1  2  3  4  5  6  7  8  9  

Terminal Aerodrome Forecast

199
FTUS44 KBMX 231140
TAFMGM
TAF
KMGM 231140Z 2312/2412 VRB03KT 5SM BR BKN250
     FM231400 20006KT P6SM SCT050 BKN250
     FM240100 VRB02KT P6SM SCT250=



Latest METAR

587
SAUS80 KWBC 231500 RRA
MTRMGM
METAR KMGM 231453Z 14004KT 10SM CLR 29/24 A3003 RMK AO2 SLP167 T02940239
50004


USA.gov is the U.S. government's official web portal to all federal, state and local government web resources and services.